sensor_id;sensor_type;location;lat;lon;timestamp;P1;durP1;ratioP1;P2;durP2;ratioP2
22144;SDS011;11238;48.730;11.566;2023-08-07T00:01:57;3.22;;;1.08;;
22144;SDS011;11238;48.730;11.566;2023-08-07T00:04:23;2.15;;;1.20;;
22144;SDS011;11238;48.730;11.566;2023-08-07T00:06:49;1.23;;;1.10;;
22144;SDS011;11238;48.730;11.566;2023-08-07T00:09:14;1.40;;;1.13;;
22144;SDS011;11238;48.730;11.566;2023-08-07T00:11:40;3.45;;;1.23;;
22144;SDS011;11238;48.730;11.566;2023-08-07T00:14:06;1.98;;;1.17;;
22144;SDS011;11238;48.730;11.566;2023-08-07T00:16:32;1.67;;;1.02;;
22144;SDS011;11238;48.730;11.566;2023-08-07T00:18:58;2.10;;;1.13;;
22144;SDS011;11238;48.730;11.566;2023-08-07T00:21:23;3.00;;;1.30;;
22144;SDS011;11238;48.730;11.566;2023-08-07T00:23:49;2.75;;;1.10;;
22144;SDS011;11238;48.730;11.566;2023-08-07T00:26:15;2.95;;;1.20;;
22144;SDS011;11238;48.730;11.566;2023-08-07T00:28:41;2.97;;;1.20;;
22144;SDS011;11238;48.730;11.566;2023-08-07T00:31:07;5.25;;;1.20;;
22144;SDS011;11238;48.730;11.566;2023-08-07T00:33:33;3.75;;;1.15;;
22144;SDS011;11238;48.730;11.566;2023-08-07T00:35:59;2.03;;;1.13;;
22144;SDS011;11238;48.730;11.566;2023-08-07T00:38:25;5.00;;;1.10;;
22144;SDS011;11238;48.730;11.566;2023-08-07T00:40:52;1.85;;;1.20;;
22144;SDS011;11238;48.730;11.566;2023-08-07T00:43:18;2.50;;;1.10;;
22144;SDS011;11238;48.730;11.566;2023-08-07T00:45:46;1.40;;;1.20;;
22144;SDS011;11238;48.730;11.566;2023-08-07T00:48:12;3.00;;;1.10;;
22144;SDS011;11238;48.730;11.566;2023-08-07T00:50:40;2.90;;;1.20;;
22144;SDS011;11238;48.730;11.566;2023-08-07T00:53:08;4.15;;;1.30;;
22144;SDS011;11238;48.730;11.566;2023-08-07T00:55:34;2.08;;;1.30;;
22144;SDS011;11238;48.730;11.566;2023-08-07T00:58:01;1.40;;;0.90;;
22144;SDS011;11238;48.730;11.566;2023-08-07T01:00:28;2.35;;;1.20;;
22144;SDS011;11238;48.730;11.566;2023-08-07T01:02:56;2.30;;;1.40;;
22144;SDS011;11238;48.730;11.566;2023-08-07T01:05:23;3.35;;;1.20;;
22144;SDS011;11238;48.730;11.566;2023-08-07T01:07:51;2.38;;;1.08;;
22144;SDS011;11238;48.730;11.566;2023-08-07T01:10:23;2.22;;;1.27;;
22144;SDS011;11238;48.730;11.566;2023-08-07T01:13:00;3.83;;;1.00;;
22144;SDS011;11238;48.730;11.566;2023-08-07T01:15:33;1.35;;;1.00;;
22144;SDS011;11238;48.730;11.566;2023-08-07T01:18:02;2.08;;;1.15;;
22144;SDS011;11238;48.730;11.566;2023-08-07T01:20:30;2.28;;;1.10;;
22144;SDS011;11238;48.730;11.566;2023-08-07T01:22:57;2.80;;;1.10;;
22144;SDS011;11238;48.730;11.566;2023-08-07T01:25:23;1.38;;;1.20;;
22144;SDS011;11238;48.730;11.566;2023-08-07T01:27:52;2.17;;;0.93;;
22144;SDS011;11238;48.730;11.566;2023-08-07T01:30:36;5.70;;;1.38;;
22144;SDS011;11238;48.730;11.566;2023-08-07T01:36:08;2.20;;;1.20;;
22144;SDS011;11238;48.730;11.566;2023-08-07T01:38:36;1.38;;;1.20;;
22144;SDS011;11238;48.730;11.566;2023-08-07T01:41:03;2.28;;;1.20;;
22144;SDS011;11238;48.730;11.566;2023-08-07T01:43:29;1.55;;;1.10;;
22144;SDS011;11238;48.730;11.566;2023-08-07T01:45:56;2.47;;;1.33;;
22144;SDS011;11238;48.730;11.566;2023-08-07T01:48:23;2.08;;;1.30;;
22144;SDS011;11238;48.730;11.566;2023-08-07T01:50:49;3.35;;;1.17;;
22144;SDS011;11238;48.730;11.566;2023-08-07T01:53:15;3.53;;;1.50;;
22144;SDS011;11238;48.730;11.566;2023-08-07T01:55:40;3.90;;;1.23;;
22144;SDS011;11238;48.730;11.566;2023-08-07T01:58:06;2.00;;;1.20;;
22144;SDS011;11238;48.730;11.566;2023-08-07T02:00:33;2.13;;;1.30;;
22144;SDS011;11238;48.730;11.566;2023-08-07T02:02:58;3.50;;;1.48;;
22144;SDS011;11238;48.730;11.566;2023-08-07T02:05:26;1.83;;;1.27;;
22144;SDS011;11238;48.730;11.566;2023-08-07T02:07:51;1.88;;;1.30;;
22144;SDS011;11238;48.730;11.566;2023-08-07T02:10:19;2.70;;;1.20;;
22144;SDS011;11238;48.730;11.566;2023-08-07T02:12:45;2.72;;;1.60;;
22144;SDS011;11238;48.730;11.566;2023-08-07T02:15:12;4.78;;;1.70;;
22144;SDS011;11238;48.730;11.566;2023-08-07T02:17:38;2.00;;;1.30;;
22144;SDS011;11238;48.730;11.566;2023-08-07T02:20:06;2.38;;;1.50;;
22144;SDS011;11238;48.730;11.566;2023-08-07T02:22:33;3.45;;;1.60;;
22144;SDS011;11238;48.730;11.566;2023-08-07T02:24:59;2.35;;;1.23;;
22144;SDS011;11238;48.730;11.566;2023-08-07T02:27:25;2.45;;;1.42;;
22144;SDS011;11238;48.730;11.566;2023-08-07T02:29:51;2.03;;;1.30;;
22144;SDS011;11238;48.730;11.566;2023-08-07T02:32:17;3.47;;;1.50;;
22144;SDS011;11238;48.730;11.566;2023-08-07T02:34:44;4.90;;;1.67;;
22144;SDS011;11238;48.730;11.566;2023-08-07T02:37:10;2.97;;;1.52;;
22144;SDS011;11238;48.730;11.566;2023-08-07T02:39:36;5.57;;;1.70;;
22144;SDS011;11238;48.730;11.566;2023-08-07T02:42:01;2.90;;;1.50;;
22144;SDS011;11238;48.730;11.566;2023-08-07T02:44:28;3.40;;;1.60;;
22144;SDS011;11238;48.730;11.566;2023-08-07T02:46:54;3.28;;;1.65;;
22144;SDS011;11238;48.730;11.566;2023-08-07T02:49:20;3.35;;;1.58;;
22144;SDS011;11238;48.730;11.566;2023-08-07T02:51:46;4.40;;;1.80;;
22144;SDS011;11238;48.730;11.566;2023-08-07T02:54:12;4.80;;;1.60;;
22144;SDS011;11238;48.730;11.566;2023-08-07T02:56:38;2.40;;;1.50;;
22144;SDS011;11238;48.730;11.566;2023-08-07T02:59:04;2.25;;;1.75;;
22144;SDS011;11238;48.730;11.566;2023-08-07T03:01:31;6.22;;;1.88;;
22144;SDS011;11238;48.730;11.566;2023-08-07T03:03:57;3.85;;;1.83;;
22144;SDS011;11238;48.730;11.566;2023-08-07T03:06:22;3.45;;;1.60;;
22144;SDS011;11238;48.730;11.566;2023-08-07T03:08:48;3.60;;;1.65;;
22144;SDS011;11238;48.730;11.566;2023-08-07T03:11:14;2.28;;;1.35;;
22144;SDS011;11238;48.730;11.566;2023-08-07T03:13:40;4.15;;;1.55;;
22144;SDS011;11238;48.730;11.566;2023-08-07T03:16:07;3.53;;;1.52;;
22144;SDS011;11238;48.730;11.566;2023-08-07T03:18:34;5.28;;;1.60;;
22144;SDS011;11238;48.730;11.566;2023-08-07T03:21:00;2.47;;;1.50;;
22144;SDS011;11238;48.730;11.566;2023-08-07T03:23:26;3.92;;;1.70;;
22144;SDS011;11238;48.730;11.566;2023-08-07T03:26:01;1.60;;;1.50;;
22144;SDS011;11238;48.730;11.566;2023-08-07T03:30:54;3.38;;;1.60;;
22144;SDS011;11238;48.730;11.566;2023-08-07T03:33:20;3.03;;;1.50;;
22144;SDS011;11238;48.730;11.566;2023-08-07T03:35:46;5.57;;;1.88;;
22144;SDS011;11238;48.730;11.566;2023-08-07T03:38:12;4.80;;;2.22;;
22144;SDS011;11238;48.730;11.566;2023-08-07T03:40:38;3.00;;;1.85;;
22144;SDS011;11238;48.730;11.566;2023-08-07T03:43:06;4.88;;;2.00;;
22144;SDS011;11238;48.730;11.566;2023-08-07T03:45:32;6.45;;;2.05;;
22144;SDS011;11238;48.730;11.566;2023-08-07T03:47:57;6.60;;;2.40;;
22144;SDS011;11238;48.730;11.566;2023-08-07T03:50:23;7.50;;;2.10;;
22144;SDS011;11238;48.730;11.566;2023-08-07T03:52:49;7.07;;;2.28;;
22144;SDS011;11238;48.730;11.566;2023-08-07T03:55:16;4.15;;;2.13;;
22144;SDS011;11238;48.730;11.566;2023-08-07T03:57:41;4.10;;;2.00;;
22144;SDS011;11238;48.730;11.566;2023-08-07T04:00:08;4.90;;;2.33;;
22144;SDS011;11238;48.730;11.566;2023-08-07T04:02:40;2.85;;;1.90;;
22144;SDS011;11238;48.730;11.566;2023-08-07T04:05:09;8.13;;;2.63;;
22144;SDS011;11238;48.730;11.566;2023-08-07T04:07:37;4.50;;;2.08;;
22144;SDS011;11238;48.730;11.566;2023-08-07T04:10:24;6.53;;;2.47;;
22144;SDS011;11238;48.730;11.566;2023-08-07T04:12:51;7.03;;;2.50;;
22144;SDS011;11238;48.730;11.566;2023-08-07T04:15:16;5.15;;;2.10;;
22144;SDS011;11238;48.730;11.566;2023-08-07T04:17:42;5.43;;;2.10;;
22144;SDS011;11238;48.730;11.566;2023-08-07T04:20:08;3.97;;;2.25;;
22144;SDS011;11238;48.730;11.566;2023-08-07T04:22:35;5.43;;;2.08;;
22144;SDS011;11238;48.730;11.566;2023-08-07T04:25:01;4.40;;;2.03;;
22144;SDS011;11238;48.730;11.566;2023-08-07T04:27:27;6.18;;;2.30;;
22144;SDS011;11238;48.730;11.566;2023-08-07T04:29:54;5.18;;;2.35;;
22144;SDS011;11238;48.730;11.566;2023-08-07T04:32:41;10.27;;;2.30;;
22144;SDS011;11238;48.730;11.566;2023-08-07T04:35:07;4.45;;;2.20;;
22144;SDS011;11238;48.730;11.566;2023-08-07T04:37:34;7.38;;;2.33;;
22144;SDS011;11238;48.730;11.566;2023-08-07T04:39:59;4.88;;;2.25;;
22144;SDS011;11238;48.730;11.566;2023-08-07T04:42:26;4.10;;;2.40;;
22144;SDS011;11238;48.730;11.566;2023-08-07T04:44:51;7.30;;;2.72;;
22144;SDS011;11238;48.730;11.566;2023-08-07T04:47:17;7.22;;;2.53;;
22144;SDS011;11238;48.730;11.566;2023-08-07T04:49:43;3.80;;;1.95;;
22144;SDS011;11238;48.730;11.566;2023-08-07T04:52:09;7.28;;;2.10;;
22144;SDS011;11238;48.730;11.566;2023-08-07T04:54:35;8.25;;;2.30;;
22144;SDS011;11238;48.730;11.566;2023-08-07T04:57:01;4.80;;;2.35;;
22144;SDS011;11238;48.730;11.566;2023-08-07T04:59:28;7.30;;;2.42;;
22144;SDS011;11238;48.730;11.566;2023-08-07T05:01:55;4.30;;;2.00;;
22144;SDS011;11238;48.730;11.566;2023-08-07T05:04:22;4.28;;;2.50;;
22144;SDS011;11238;48.730;11.566;2023-08-07T05:06:47;5.25;;;2.40;;
22144;SDS011;11238;48.730;11.566;2023-08-07T05:09:14;4.47;;;2.10;;
22144;SDS011;11238;48.730;11.566;2023-08-07T05:11:40;4.55;;;2.15;;
22144;SDS011;11238;48.730;11.566;2023-08-07T05:14:05;4.75;;;2.20;;
22144;SDS011;11238;48.730;11.566;2023-08-07T05:16:31;4.85;;;2.40;;
22144;SDS011;11238;48.730;11.566;2023-08-07T05:18:57;5.25;;;2.35;;
22144;SDS011;11238;48.730;11.566;2023-08-07T05:21:23;3.45;;;2.25;;
22144;SDS011;11238;48.730;11.566;2023-08-07T05:24:10;7.93;;;2.78;;
22144;SDS011;11238;48.730;11.566;2023-08-07T05:26:37;5.82;;;2.08;;
22144;SDS011;11238;48.730;11.566;2023-08-07T05:29:03;4.72;;;2.50;;
22144;SDS011;11238;48.730;11.566;2023-08-07T05:31:29;5.05;;;2.08;;
22144;SDS011;11238;48.730;11.566;2023-08-07T05:33:55;4.85;;;2.17;;
22144;SDS011;11238;48.730;11.566;2023-08-07T05:36:21;4.45;;;2.15;;
22144;SDS011;11238;48.730;11.566;2023-08-07T05:38:46;4.85;;;2.67;;
22144;SDS011;11238;48.730;11.566;2023-08-07T05:41:12;7.25;;;2.55;;
22144;SDS011;11238;48.730;11.566;2023-08-07T05:43:38;10.20;;;2.70;;
22144;SDS011;11238;48.730;11.566;2023-08-07T05:46:04;4.15;;;2.60;;
22144;SDS011;11238;48.730;11.566;2023-08-07T05:48:29;7.63;;;2.70;;
22144;SDS011;11238;48.730;11.566;2023-08-07T05:50:55;5.55;;;2.25;;
22144;SDS011;11238;48.730;11.566;2023-08-07T05:53:21;4.95;;;2.38;;
22144;SDS011;11238;48.730;11.566;2023-08-07T05:55:47;7.95;;;2.75;;
22144;SDS011;11238;48.730;11.566;2023-08-07T05:58:13;4.65;;;2.65;;
22144;SDS011;11238;48.730;11.566;2023-08-07T06:00:38;5.68;;;2.75;;
22144;SDS011;11238;48.730;11.566;2023-08-07T06:03:04;5.95;;;2.47;;
22144;SDS011;11238;48.730;11.566;2023-08-07T06:05:30;8.43;;;2.50;;
22144;SDS011;11238;48.730;11.566;2023-08-07T06:07:56;5.88;;;2.65;;
22144;SDS011;11238;48.730;11.566;2023-08-07T06:10:21;4.07;;;2.63;;
22144;SDS011;11238;48.730;11.566;2023-08-07T06:12:48;5.43;;;2.63;;
22144;SDS011;11238;48.730;11.566;2023-08-07T06:15:14;7.47;;;2.45;;
22144;SDS011;11238;48.730;11.566;2023-08-07T06:17:40;5.50;;;2.50;;
22144;SDS011;11238;48.730;11.566;2023-08-07T06:20:07;5.88;;;2.20;;
22144;SDS011;11238;48.730;11.566;2023-08-07T06:22:34;4.63;;;2.20;;
22144;SDS011;11238;48.730;11.566;2023-08-07T06:25:00;6.38;;;2.35;;
22144;SDS011;11238;48.730;11.566;2023-08-07T06:27:27;7.00;;;2.42;;
22144;SDS011;11238;48.730;11.566;2023-08-07T06:29:53;4.55;;;2.20;;
22144;SDS011;11238;48.730;11.566;2023-08-07T06:32:19;5.13;;;2.00;;
22144;SDS011;11238;48.730;11.566;2023-08-07T06:34:45;2.75;;;2.20;;
22144;SDS011;11238;48.730;11.566;2023-08-07T06:37:12;4.28;;;2.05;;
22144;SDS011;11238;48.730;11.566;2023-08-07T06:39:37;9.40;;;2.50;;
22144;SDS011;11238;48.730;11.566;2023-08-07T06:42:03;6.65;;;2.03;;
22144;SDS011;11238;48.730;11.566;2023-08-07T06:44:33;6.38;;;2.35;;
22144;SDS011;11238;48.730;11.566;2023-08-07T06:46:59;4.05;;;2.13;;
22144;SDS011;11238;48.730;11.566;2023-08-07T06:49:25;3.90;;;2.30;;
22144;SDS011;11238;48.730;11.566;2023-08-07T06:51:51;4.80;;;2.30;;
22144;SDS011;11238;48.730;11.566;2023-08-07T06:54:17;8.82;;;2.08;;
22144;SDS011;11238;48.730;11.566;2023-08-07T06:56:43;4.82;;;2.30;;
22144;SDS011;11238;48.730;11.566;2023-08-07T06:59:10;3.97;;;1.98;;
22144;SDS011;11238;48.730;11.566;2023-08-07T07:01:35;3.55;;;1.90;;
22144;SDS011;11238;48.730;11.566;2023-08-07T07:04:01;6.22;;;1.70;;
22144;SDS011;11238;48.730;11.566;2023-08-07T07:06:27;5.93;;;2.10;;
22144;SDS011;11238;48.730;11.566;2023-08-07T07:08:53;4.45;;;1.65;;
22144;SDS011;11238;48.730;11.566;2023-08-07T07:11:20;6.35;;;2.10;;
22144;SDS011;11238;48.730;11.566;2023-08-07T07:13:47;3.88;;;1.77;;
22144;SDS011;11238;48.730;11.566;2023-08-07T07:16:13;6.80;;;2.17;;
22144;SDS011;11238;48.730;11.566;2023-08-07T07:18:39;4.55;;;1.75;;
22144;SDS011;11238;48.730;11.566;2023-08-07T07:21:05;3.47;;;1.73;;
22144;SDS011;11238;48.730;11.566;2023-08-07T07:23:31;6.18;;;1.70;;
22144;SDS011;11238;48.730;11.566;2023-08-07T07:25:57;5.55;;;2.05;;
22144;SDS011;11238;48.730;11.566;2023-08-07T07:28:23;3.70;;;1.85;;
22144;SDS011;11238;48.730;11.566;2023-08-07T07:30:49;3.47;;;1.65;;
22144;SDS011;11238;48.730;11.566;2023-08-07T07:33:16;2.47;;;1.92;;
22144;SDS011;11238;48.730;11.566;2023-08-07T07:35:41;8.35;;;2.20;;
22144;SDS011;11238;48.730;11.566;2023-08-07T07:38:09;2.90;;;1.83;;
22144;SDS011;11238;48.730;11.566;2023-08-07T07:40:35;4.88;;;2.00;;
22144;SDS011;11238;48.730;11.566;2023-08-07T07:43:02;2.75;;;1.67;;
22144;SDS011;11238;48.730;11.566;2023-08-07T07:45:28;5.15;;;1.70;;
22144;SDS011;11238;48.730;11.566;2023-08-07T07:47:54;7.10;;;1.75;;
22144;SDS011;11238;48.730;11.566;2023-08-07T07:50:20;5.13;;;2.08;;
22144;SDS011;11238;48.730;11.566;2023-08-07T07:52:46;6.80;;;2.10;;
22144;SDS011;11238;48.730;11.566;2023-08-07T07:55:12;3.60;;;1.50;;
22144;SDS011;11238;48.730;11.566;2023-08-07T07:57:39;4.53;;;1.85;;
22144;SDS011;11238;48.730;11.566;2023-08-07T08:00:06;3.90;;;2.00;;
22144;SDS011;11238;48.730;11.566;2023-08-07T08:02:38;5.63;;;2.15;;
22144;SDS011;11238;48.730;11.566;2023-08-07T08:05:06;3.83;;;1.85;;
22144;SDS011;11238;48.730;11.566;2023-08-07T08:07:33;4.25;;;2.17;;
22144;SDS011;11238;48.730;11.566;2023-08-07T08:10:00;4.15;;;2.15;;
22144;SDS011;11238;48.730;11.566;2023-08-07T08:12:26;3.75;;;2.10;;
22144;SDS011;11238;48.730;11.566;2023-08-07T08:14:51;5.22;;;2.42;;
22144;SDS011;11238;48.730;11.566;2023-08-07T08:17:18;5.28;;;2.05;;
22144;SDS011;11238;48.730;11.566;2023-08-07T08:19:44;3.05;;;1.95;;
22144;SDS011;11238;48.730;11.566;2023-08-07T08:22:09;4.70;;;2.00;;
22144;SDS011;11238;48.730;11.566;2023-08-07T08:24:35;4.57;;;2.22;;
22144;SDS011;11238;48.730;11.566;2023-08-07T08:27:01;4.15;;;2.30;;
22144;SDS011;11238;48.730;11.566;2023-08-07T08:29:28;3.90;;;2.00;;
22144;SDS011;11238;48.730;11.566;2023-08-07T08:31:54;4.25;;;1.90;;
22144;SDS011;11238;48.730;11.566;2023-08-07T08:34:20;3.75;;;1.88;;
22144;SDS011;11238;48.730;11.566;2023-08-07T08:36:46;3.97;;;1.70;;
22144;SDS011;11238;48.730;11.566;2023-08-07T08:39:13;3.13;;;1.70;;
22144;SDS011;11238;48.730;11.566;2023-08-07T08:41:39;7.82;;;1.92;;
22144;SDS011;11238;48.730;11.566;2023-08-07T08:44:10;3.53;;;1.80;;
22144;SDS011;11238;48.730;11.566;2023-08-07T08:46:41;4.03;;;1.77;;
22144;SDS011;11238;48.730;11.566;2023-08-07T08:49:08;6.22;;;2.28;;
22144;SDS011;11238;48.730;11.566;2023-08-07T08:51:36;6.03;;;1.80;;
22144;SDS011;11238;48.730;11.566;2023-08-07T08:54:02;5.03;;;1.92;;
22144;SDS011;11238;48.730;11.566;2023-08-07T08:56:29;6.38;;;2.10;;
22144;SDS011;11238;48.730;11.566;2023-08-07T08:58:55;6.68;;;2.03;;
22144;SDS011;11238;48.730;11.566;2023-08-07T09:01:22;3.33;;;2.25;;
22144;SDS011;11238;48.730;11.566;2023-08-07T09:03:49;3.88;;;2.10;;
22144;SDS011;11238;48.730;11.566;2023-08-07T09:06:17;4.70;;;2.00;;
22144;SDS011;11238;48.730;11.566;2023-08-07T09:08:44;5.00;;;1.88;;
22144;SDS011;11238;48.730;11.566;2023-08-07T09:11:11;4.45;;;2.10;;
22144;SDS011;11238;48.730;11.566;2023-08-07T09:13:38;5.28;;;1.95;;
22144;SDS011;11238;48.730;11.566;2023-08-07T09:16:06;5.97;;;1.90;;
22144;SDS011;11238;48.730;11.566;2023-08-07T09:18:34;4.53;;;1.80;;
22144;SDS011;11238;48.730;11.566;2023-08-07T09:21:01;5.10;;;1.80;;
22144;SDS011;11238;48.730;11.566;2023-08-07T09:23:27;6.95;;;1.95;;
22144;SDS011;11238;48.730;11.566;2023-08-07T09:26:00;15.45;;;2.25;;
22144;SDS011;11238;48.730;11.566;2023-08-07T09:28:30;6.90;;;2.00;;
22144;SDS011;11238;48.730;11.566;2023-08-07T09:30:57;5.20;;;2.25;;
22144;SDS011;11238;48.730;11.566;2023-08-07T09:33:25;4.82;;;1.70;;
22144;SDS011;11238;48.730;11.566;2023-08-07T09:35:51;5.70;;;1.90;;
22144;SDS011;11238;48.730;11.566;2023-08-07T09:38:17;4.03;;;1.90;;
22144;SDS011;11238;48.730;11.566;2023-08-07T09:40:43;4.40;;;1.67;;
22144;SDS011;11238;48.730;11.566;2023-08-07T09:43:09;3.03;;;1.58;;
22144;SDS011;11238;48.730;11.566;2023-08-07T09:45:36;8.15;;;1.88;;
22144;SDS011;11238;48.730;11.566;2023-08-07T09:48:05;5.80;;;1.80;;
22144;SDS011;11238;48.730;11.566;2023-08-07T09:50:32;7.63;;;1.85;;
22144;SDS011;11238;48.730;11.566;2023-08-07T09:53:01;6.80;;;1.75;;
22144;SDS011;11238;48.730;11.566;2023-08-07T09:55:27;3.33;;;1.75;;
22144;SDS011;11238;48.730;11.566;2023-08-07T09:57:53;6.15;;;1.67;;
22144;SDS011;11238;48.730;11.566;2023-08-07T10:00:19;4.88;;;1.88;;
22144;SDS011;11238;48.730;11.566;2023-08-07T10:02:46;4.93;;;2.17;;
22144;SDS011;11238;48.730;11.566;2023-08-07T10:05:13;7.00;;;1.95;;
22144;SDS011;11238;48.730;11.566;2023-08-07T10:07:39;2.47;;;1.55;;
22144;SDS011;11238;48.730;11.566;2023-08-07T10:10:06;4.57;;;1.73;;
22144;SDS011;11238;48.730;11.566;2023-08-07T10:12:33;2.50;;;1.40;;
22144;SDS011;11238;48.730;11.566;2023-08-07T10:14:59;4.13;;;1.50;;
22144;SDS011;11238;48.730;11.566;2023-08-07T10:17:26;6.70;;;1.65;;
22144;SDS011;11238;48.730;11.566;2023-08-07T10:19:56;3.17;;;1.35;;
22144;SDS011;11238;48.730;11.566;2023-08-07T10:22:26;4.15;;;1.60;;
22144;SDS011;11238;48.730;11.566;2023-08-07T10:24:55;6.13;;;1.42;;
22144;SDS011;11238;48.730;11.566;2023-08-07T10:27:22;3.65;;;1.65;;
22144;SDS011;11238;48.730;11.566;2023-08-07T10:29:50;5.85;;;1.40;;
22144;SDS011;11238;48.730;11.566;2023-08-07T10:32:18;2.58;;;1.20;;
22144;SDS011;11238;48.730;11.566;2023-08-07T10:34:52;4.05;;;1.33;;
22144;SDS011;11238;48.730;11.566;2023-08-07T10:40:01;4.10;;;1.30;;
22144;SDS011;11238;48.730;11.566;2023-08-07T10:45:28;3.03;;;1.40;;
22144;SDS011;11238;48.730;11.566;2023-08-07T10:48:01;2.53;;;1.58;;
22144;SDS011;11238;48.730;11.566;2023-08-07T10:50:32;4.32;;;1.73;;
22144;SDS011;11238;48.730;11.566;2023-08-07T10:53:02;4.30;;;1.45;;
22144;SDS011;11238;48.730;11.566;2023-08-07T10:55:45;3.88;;;1.40;;
22144;SDS011;11238;48.730;11.566;2023-08-07T10:58:26;2.47;;;1.45;;
22144;SDS011;11238;48.730;11.566;2023-08-07T11:03:53;2.42;;;1.50;;
22144;SDS011;11238;48.730;11.566;2023-08-07T11:06:21;5.45;;;1.48;;
22144;SDS011;11238;48.730;11.566;2023-08-07T11:08:49;2.90;;;1.40;;
22144;SDS011;11238;48.730;11.566;2023-08-07T11:11:15;7.22;;;1.50;;
22144;SDS011;11238;48.730;11.566;2023-08-07T11:13:41;2.90;;;1.67;;
22144;SDS011;11238;48.730;11.566;2023-08-07T11:16:07;3.38;;;1.73;;
22144;SDS011;11238;48.730;11.566;2023-08-07T11:18:32;2.22;;;1.30;;
22144;SDS011;11238;48.730;11.566;2023-08-07T11:21:00;3.40;;;1.38;;
22144;SDS011;11238;48.730;11.566;2023-08-07T11:23:27;5.40;;;1.48;;
22144;SDS011;11238;48.730;11.566;2023-08-07T11:25:54;3.85;;;1.30;;
22144;SDS011;11238;48.730;11.566;2023-08-07T11:28:20;4.35;;;1.60;;
22144;SDS011;11238;48.730;11.566;2023-08-07T11:30:48;2.97;;;1.35;;
22144;SDS011;11238;48.730;11.566;2023-08-07T11:33:17;2.45;;;1.42;;
22144;SDS011;11238;48.730;11.566;2023-08-07T11:35:45;2.13;;;1.30;;
22144;SDS011;11238;48.730;11.566;2023-08-07T11:38:11;4.78;;;1.30;;
22144;SDS011;11238;48.730;11.566;2023-08-07T11:40:37;2.13;;;1.38;;
22144;SDS011;11238;48.730;11.566;2023-08-07T11:43:03;2.85;;;1.40;;
22144;SDS011;11238;48.730;11.566;2023-08-07T11:45:29;1.60;;;1.20;;
22144;SDS011;11238;48.730;11.566;2023-08-07T11:47:55;2.85;;;1.70;;
22144;SDS011;11238;48.730;11.566;2023-08-07T11:50:22;3.80;;;1.60;;
22144;SDS011;11238;48.730;11.566;2023-08-07T11:52:48;1.88;;;1.20;;
22144;SDS011;11238;48.730;11.566;2023-08-07T11:55:14;3.05;;;1.30;;
22144;SDS011;11238;48.730;11.566;2023-08-07T11:57:40;2.75;;;1.50;;
22144;SDS011;11238;48.730;11.566;2023-08-07T12:00:08;3.47;;;1.30;;
22144;SDS011;11238;48.730;11.566;2023-08-07T12:02:42;5.25;;;1.35;;
22144;SDS011;11238;48.730;11.566;2023-08-07T12:05:09;3.42;;;1.60;;
22144;SDS011;11238;48.730;11.566;2023-08-07T12:07:39;3.55;;;1.40;;
22144;SDS011;11238;48.730;11.566;2023-08-07T12:10:08;2.58;;;1.50;;
22144;SDS011;11238;48.730;11.566;2023-08-07T12:12:38;2.90;;;1.20;;
22144;SDS011;11238;48.730;11.566;2023-08-07T12:15:07;2.95;;;1.30;;
22144;SDS011;11238;48.730;11.566;2023-08-07T12:17:35;3.10;;;1.10;;
22144;SDS011;11238;48.730;11.566;2023-08-07T12:20:02;5.97;;;1.20;;
22144;SDS011;11238;48.730;11.566;2023-08-07T12:22:31;2.88;;;1.25;;
22144;SDS011;11238;48.730;11.566;2023-08-07T12:24:57;2.05;;;0.95;;
22144;SDS011;11238;48.730;11.566;2023-08-07T12:27:22;3.70;;;1.42;;
22144;SDS011;11238;48.730;11.566;2023-08-07T12:29:48;4.35;;;1.17;;
22144;SDS011;11238;48.730;11.566;2023-08-07T12:32:14;1.20;;;1.10;;
22144;SDS011;11238;48.730;11.566;2023-08-07T12:34:40;3.85;;;1.20;;
22144;SDS011;11238;48.730;11.566;2023-08-07T12:37:06;2.65;;;1.40;;
22144;SDS011;11238;48.730;11.566;2023-08-07T12:39:32;1.80;;;1.27;;
22144;SDS011;11238;48.730;11.566;2023-08-07T12:41:58;3.70;;;1.05;;
22144;SDS011;11238;48.730;11.566;2023-08-07T12:44:24;2.58;;;1.20;;
22144;SDS011;11238;48.730;11.566;2023-08-07T12:46:50;3.90;;;1.52;;
22144;SDS011;11238;48.730;11.566;2023-08-07T12:49:17;3.15;;;1.27;;
22144;SDS011;11238;48.730;11.566;2023-08-07T12:51:44;2.72;;;1.45;;
22144;SDS011;11238;48.730;11.566;2023-08-07T12:54:10;3.45;;;1.30;;
22144;SDS011;11238;48.730;11.566;2023-08-07T12:56:35;3.40;;;1.20;;
22144;SDS011;11238;48.730;11.566;2023-08-07T12:59:01;3.58;;;1.30;;
22144;SDS011;11238;48.730;11.566;2023-08-07T13:01:28;3.75;;;1.60;;
22144;SDS011;11238;48.730;11.566;2023-08-07T13:03:54;4.75;;;1.40;;
22144;SDS011;11238;48.730;11.566;2023-08-07T13:06:20;1.65;;;1.40;;
22144;SDS011;11238;48.730;11.566;2023-08-07T13:08:46;3.08;;;1.30;;
22144;SDS011;11238;48.730;11.566;2023-08-07T13:11:11;1.58;;;1.17;;
22144;SDS011;11238;48.730;11.566;2023-08-07T13:13:37;3.92;;;1.40;;
22144;SDS011;11238;48.730;11.566;2023-08-07T13:16:06;2.08;;;1.40;;
22144;SDS011;11238;48.730;11.566;2023-08-07T13:18:32;3.38;;;1.40;;
22144;SDS011;11238;48.730;11.566;2023-08-07T13:20:58;2.67;;;1.42;;
22144;SDS011;11238;48.730;11.566;2023-08-07T13:23:29;3.78;;;1.52;;
22144;SDS011;11238;48.730;11.566;2023-08-07T13:25:55;2.47;;;1.50;;
22144;SDS011;11238;48.730;11.566;2023-08-07T13:28:21;2.10;;;1.40;;
22144;SDS011;11238;48.730;11.566;2023-08-07T13:30:47;3.30;;;1.42;;
22144;SDS011;11238;48.730;11.566;2023-08-07T13:33:12;4.45;;;1.40;;
22144;SDS011;11238;48.730;11.566;2023-08-07T13:35:38;2.78;;;1.40;;
22144;SDS011;11238;48.730;11.566;2023-08-07T13:38:04;3.72;;;1.17;;
22144;SDS011;11238;48.730;11.566;2023-08-07T13:40:32;2.05;;;1.45;;
22144;SDS011;11238;48.730;11.566;2023-08-07T13:42:58;2.72;;;1.50;;
22144;SDS011;11238;48.730;11.566;2023-08-07T13:45:28;4.88;;;1.48;;
22144;SDS011;11238;48.730;11.566;2023-08-07T13:47:53;2.28;;;1.45;;
22144;SDS011;11238;48.730;11.566;2023-08-07T13:50:19;2.70;;;1.40;;
22144;SDS011;11238;48.730;11.566;2023-08-07T13:52:45;2.63;;;1.60;;
22144;SDS011;11238;48.730;11.566;2023-08-07T13:55:11;3.42;;;1.40;;
22144;SDS011;11238;48.730;11.566;2023-08-07T13:57:36;6.05;;;1.60;;
22144;SDS011;11238;48.730;11.566;2023-08-07T14:00:02;3.17;;;1.58;;
22144;SDS011;11238;48.730;11.566;2023-08-07T14:02:30;3.20;;;1.50;;
22144;SDS011;11238;48.730;11.566;2023-08-07T14:04:58;3.95;;;1.38;;
22144;SDS011;11238;48.730;11.566;2023-08-07T14:07:24;4.95;;;1.95;;
22144;SDS011;11238;48.730;11.566;2023-08-07T14:09:50;3.47;;;1.70;;
22144;SDS011;11238;48.730;11.566;2023-08-07T14:12:16;2.38;;;1.35;;
22144;SDS011;11238;48.730;11.566;2023-08-07T14:14:42;2.22;;;1.23;;
22144;SDS011;11238;48.730;11.566;2023-08-07T14:17:07;2.22;;;1.50;;
22144;SDS011;11238;48.730;11.566;2023-08-07T14:19:33;1.77;;;1.23;;
22144;SDS011;11238;48.730;11.566;2023-08-07T14:21:58;3.42;;;1.40;;
22144;SDS011;11238;48.730;11.566;2023-08-07T14:24:25;3.65;;;1.42;;
22144;SDS011;11238;48.730;11.566;2023-08-07T14:26:51;4.05;;;1.40;;
22144;SDS011;11238;48.730;11.566;2023-08-07T14:29:16;2.47;;;1.15;;
22144;SDS011;11238;48.730;11.566;2023-08-07T14:31:42;4.05;;;1.50;;
22144;SDS011;11238;48.730;11.566;2023-08-07T14:34:08;2.65;;;1.30;;
22144;SDS011;11238;48.730;11.566;2023-08-07T14:36:35;3.30;;;1.17;;
22144;SDS011;11238;48.730;11.566;2023-08-07T14:39:01;1.35;;;1.13;;
22144;SDS011;11238;48.730;11.566;2023-08-07T14:41:27;2.47;;;1.20;;
22144;SDS011;11238;48.730;11.566;2023-08-07T14:43:53;3.30;;;1.15;;
22144;SDS011;11238;48.730;11.566;2023-08-07T14:46:19;1.95;;;0.95;;